sensor_id;sensor_type;location;lat;lon;timestamp;P1;durP1;ratioP1;P2;durP2;ratioP2
21188;SDS011;39071;52.420;20.896;2022-07-22T00:01:33;14.45;;;7.10;;
21188;SDS011;39071;52.420;20.896;2022-07-22T00:03:59;12.48;;;7.32;;
21188;SDS011;39071;52.420;20.896;2022-07-22T00:06:26;11.27;;;6.75;;
21188;SDS011;39071;52.420;20.896;2022-07-22T00:08:52;11.93;;;7.65;;
21188;SDS011;39071;52.420;20.896;2022-07-22T00:11:18;12.30;;;6.93;;
21188;SDS011;39071;52.420;20.896;2022-07-22T00:13:44;11.25;;;6.57;;
21188;SDS011;39071;52.420;20.896;2022-07-22T00:16:11;11.95;;;7.00;;
21188;SDS011;39071;52.420;20.896;2022-07-22T00:18:36;13.65;;;7.43;;
21188;SDS011;39071;52.420;20.896;2022-07-22T00:21:02;15.05;;;7.05;;
21188;SDS011;39071;52.420;20.896;2022-07-22T00:23:28;13.18;;;7.13;;
21188;SDS011;39071;52.420;20.896;2022-07-22T00:25:54;16.75;;;7.95;;
21188;SDS011;39071;52.420;20.896;2022-07-22T00:28:19;15.63;;;7.50;;
21188;SDS011;39071;52.420;20.896;2022-07-22T00:30:45;12.70;;;7.80;;
21188;SDS011;39071;52.420;20.896;2022-07-22T00:33:11;12.20;;;7.50;;
21188;SDS011;39071;52.420;20.896;2022-07-22T00:35:37;13.60;;;7.53;;
21188;SDS011;39071;52.420;20.896;2022-07-22T00:38:02;13.93;;;7.03;;
21188;SDS011;39071;52.420;20.896;2022-07-22T00:40:28;11.40;;;7.18;;
21188;SDS011;39071;52.420;20.896;2022-07-22T00:42:54;11.70;;;7.38;;
21188;SDS011;39071;52.420;20.896;2022-07-22T00:45:20;11.63;;;7.55;;
21188;SDS011;39071;52.420;20.896;2022-07-22T00:47:45;15.73;;;7.88;;
21188;SDS011;39071;52.420;20.896;2022-07-22T00:50:11;19.45;;;7.32;;
21188;SDS011;39071;52.420;20.896;2022-07-22T00:52:41;12.18;;;6.90;;
21188;SDS011;39071;52.420;20.896;2022-07-22T00:55:08;14.40;;;7.20;;
21188;SDS011;39071;52.420;20.896;2022-07-22T00:57:34;12.55;;;7.63;;
21188;SDS011;39071;52.420;20.896;2022-07-22T01:00:00;17.35;;;7.72;;
21188;SDS011;39071;52.420;20.896;2022-07-22T01:02:29;15.18;;;7.68;;
21188;SDS011;39071;52.420;20.896;2022-07-22T01:04:54;20.90;;;7.00;;
21188;SDS011;39071;52.420;20.896;2022-07-22T01:07:20;17.27;;;7.63;;
21188;SDS011;39071;52.420;20.896;2022-07-22T01:09:46;11.02;;;6.78;;
21188;SDS011;39071;52.420;20.896;2022-07-22T01:12:12;11.73;;;6.50;;
21188;SDS011;39071;52.420;20.896;2022-07-22T01:14:39;11.95;;;7.03;;
21188;SDS011;39071;52.420;20.896;2022-07-22T01:17:05;11.68;;;7.10;;
21188;SDS011;39071;52.420;20.896;2022-07-22T01:19:31;14.45;;;7.28;;
21188;SDS011;39071;52.420;20.896;2022-07-22T01:21:57;18.63;;;7.35;;
21188;SDS011;39071;52.420;20.896;2022-07-22T01:24:22;19.88;;;7.00;;
21188;SDS011;39071;52.420;20.896;2022-07-22T01:26:48;10.55;;;6.88;;
21188;SDS011;39071;52.420;20.896;2022-07-22T01:29:14;13.40;;;6.57;;
21188;SDS011;39071;52.420;20.896;2022-07-22T01:31:40;12.50;;;6.38;;
21188;SDS011;39071;52.420;20.896;2022-07-22T01:34:05;15.18;;;7.47;;
21188;SDS011;39071;52.420;20.896;2022-07-22T01:36:31;11.73;;;6.38;;
21188;SDS011;39071;52.420;20.896;2022-07-22T01:38:57;14.57;;;7.03;;
21188;SDS011;39071;52.420;20.896;2022-07-22T01:41:22;10.75;;;6.85;;
21188;SDS011;39071;52.420;20.896;2022-07-22T01:43:48;15.30;;;6.53;;
21188;SDS011;39071;52.420;20.896;2022-07-22T01:46:14;10.23;;;5.95;;
21188;SDS011;39071;52.420;20.896;2022-07-22T01:48:40;12.20;;;7.00;;
21188;SDS011;39071;52.420;20.896;2022-07-22T01:51:06;12.38;;;6.22;;
21188;SDS011;39071;52.420;20.896;2022-07-22T01:53:31;12.32;;;7.28;;
21188;SDS011;39071;52.420;20.896;2022-07-22T01:55:57;13.00;;;6.90;;
21188;SDS011;39071;52.420;20.896;2022-07-22T01:58:23;12.82;;;7.20;;
21188;SDS011;39071;52.420;20.896;2022-07-22T02:00:48;13.23;;;6.45;;
21188;SDS011;39071;52.420;20.896;2022-07-22T02:03:14;13.27;;;6.85;;
21188;SDS011;39071;52.420;20.896;2022-07-22T02:05:41;9.48;;;6.38;;
21188;SDS011;39071;52.420;20.896;2022-07-22T02:08:07;10.13;;;6.75;;
21188;SDS011;39071;52.420;20.896;2022-07-22T02:10:35;11.75;;;6.68;;
21188;SDS011;39071;52.420;20.896;2022-07-22T02:13:02;14.10;;;6.63;;
21188;SDS011;39071;52.420;20.896;2022-07-22T02:15:28;13.23;;;6.57;;
21188;SDS011;39071;52.420;20.896;2022-07-22T02:17:54;13.32;;;7.18;;
21188;SDS011;39071;52.420;20.896;2022-07-22T02:20:20;15.50;;;7.65;;
21188;SDS011;39071;52.420;20.896;2022-07-22T02:22:46;12.10;;;6.90;;
21188;SDS011;39071;52.420;20.896;2022-07-22T02:25:12;10.75;;;7.57;;
21188;SDS011;39071;52.420;20.896;2022-07-22T02:27:38;14.70;;;7.55;;
21188;SDS011;39071;52.420;20.896;2022-07-22T02:30:05;15.32;;;7.07;;
21188;SDS011;39071;52.420;20.896;2022-07-22T02:32:31;14.52;;;7.95;;
21188;SDS011;39071;52.420;20.896;2022-07-22T02:34:57;13.43;;;7.35;;
21188;SDS011;39071;52.420;20.896;2022-07-22T02:37:23;15.48;;;7.20;;
21188;SDS011;39071;52.420;20.896;2022-07-22T02:39:49;15.45;;;7.45;;
21188;SDS011;39071;52.420;20.896;2022-07-22T02:42:15;14.48;;;7.28;;
21188;SDS011;39071;52.420;20.896;2022-07-22T02:44:40;14.65;;;7.82;;
21188;SDS011;39071;52.420;20.896;2022-07-22T02:47:06;18.88;;;7.65;;
21188;SDS011;39071;52.420;20.896;2022-07-22T02:49:32;16.35;;;7.95;;
21188;SDS011;39071;52.420;20.896;2022-07-22T02:51:58;14.73;;;7.55;;
21188;SDS011;39071;52.420;20.896;2022-07-22T02:54:24;14.13;;;7.38;;
21188;SDS011;39071;52.420;20.896;2022-07-22T02:56:49;15.05;;;7.53;;
21188;SDS011;39071;52.420;20.896;2022-07-22T02:59:15;18.73;;;8.10;;
21188;SDS011;39071;52.420;20.896;2022-07-22T03:01:41;11.80;;;6.97;;
21188;SDS011;39071;52.420;20.896;2022-07-22T03:04:06;13.30;;;7.07;;
21188;SDS011;39071;52.420;20.896;2022-07-22T03:06:32;19.60;;;7.35;;
21188;SDS011;39071;52.420;20.896;2022-07-22T03:08:58;13.43;;;7.28;;
21188;SDS011;39071;52.420;20.896;2022-07-22T03:11:23;11.45;;;6.93;;
21188;SDS011;39071;52.420;20.896;2022-07-22T03:13:49;16.73;;;7.20;;
21188;SDS011;39071;52.420;20.896;2022-07-22T03:16:15;9.63;;;6.68;;
21188;SDS011;39071;52.420;20.896;2022-07-22T03:18:40;14.13;;;7.53;;
21188;SDS011;39071;52.420;20.896;2022-07-22T03:21:06;12.07;;;7.53;;
21188;SDS011;39071;52.420;20.896;2022-07-22T03:23:32;10.88;;;7.00;;
21188;SDS011;39071;52.420;20.896;2022-07-22T03:25:57;11.35;;;6.22;;
21188;SDS011;39071;52.420;20.896;2022-07-22T03:28:23;14.05;;;6.40;;
21188;SDS011;39071;52.420;20.896;2022-07-22T03:30:49;16.60;;;8.02;;
21188;SDS011;39071;52.420;20.896;2022-07-22T03:33:14;13.75;;;7.25;;
21188;SDS011;39071;52.420;20.896;2022-07-22T03:35:40;12.13;;;7.10;;
21188;SDS011;39071;52.420;20.896;2022-07-22T03:38:06;12.07;;;7.18;;
21188;SDS011;39071;52.420;20.896;2022-07-22T03:40:32;10.95;;;6.22;;
21188;SDS011;39071;52.420;20.896;2022-07-22T03:42:57;12.10;;;7.15;;
21188;SDS011;39071;52.420;20.896;2022-07-22T03:45:23;14.45;;;6.93;;
21188;SDS011;39071;52.420;20.896;2022-07-22T03:47:49;12.80;;;7.20;;
21188;SDS011;39071;52.420;20.896;2022-07-22T03:50:14;10.82;;;6.65;;
21188;SDS011;39071;52.420;20.896;2022-07-22T03:52:40;11.77;;;6.53;;
21188;SDS011;39071;52.420;20.896;2022-07-22T03:55:06;9.65;;;5.53;;
21188;SDS011;39071;52.420;20.896;2022-07-22T03:57:32;11.40;;;6.30;;
21188;SDS011;39071;52.420;20.896;2022-07-22T03:59:58;13.60;;;6.07;;
21188;SDS011;39071;52.420;20.896;2022-07-22T04:02:24;8.00;;;5.07;;
21188;SDS011;39071;52.420;20.896;2022-07-22T04:04:49;11.40;;;6.25;;
21188;SDS011;39071;52.420;20.896;2022-07-22T04:07:15;10.77;;;5.63;;
21188;SDS011;39071;52.420;20.896;2022-07-22T04:09:41;9.18;;;5.78;;
21188;SDS011;39071;52.420;20.896;2022-07-22T04:12:06;7.88;;;5.10;;
21188;SDS011;39071;52.420;20.896;2022-07-22T04:14:32;9.57;;;5.68;;
21188;SDS011;39071;52.420;20.896;2022-07-22T04:16:58;8.10;;;5.75;;
21188;SDS011;39071;52.420;20.896;2022-07-22T04:19:24;10.27;;;5.57;;
21188;SDS011;39071;52.420;20.896;2022-07-22T04:21:49;10.35;;;5.45;;
21188;SDS011;39071;52.420;20.896;2022-07-22T04:24:15;9.95;;;5.60;;
21188;SDS011;39071;52.420;20.896;2022-07-22T04:26:41;11.40;;;5.70;;
21188;SDS011;39071;52.420;20.896;2022-07-22T04:29:06;7.53;;;5.18;;
21188;SDS011;39071;52.420;20.896;2022-07-22T04:31:32;11.13;;;5.53;;
21188;SDS011;39071;52.420;20.896;2022-07-22T04:33:58;10.13;;;5.40;;
21188;SDS011;39071;52.420;20.896;2022-07-22T04:36:23;9.20;;;4.43;;
21188;SDS011;39071;52.420;20.896;2022-07-22T04:38:49;9.55;;;5.65;;
21188;SDS011;39071;52.420;20.896;2022-07-22T04:41:16;15.82;;;5.78;;
21188;SDS011;39071;52.420;20.896;2022-07-22T04:43:41;11.90;;;5.50;;
21188;SDS011;39071;52.420;20.896;2022-07-22T04:46:07;9.30;;;5.53;;
21188;SDS011;39071;52.420;20.896;2022-07-22T04:48:33;7.50;;;5.03;;
21188;SDS011;39071;52.420;20.896;2022-07-22T04:50:59;8.60;;;5.47;;
21188;SDS011;39071;52.420;20.896;2022-07-22T04:53:26;10.75;;;5.80;;
21188;SDS011;39071;52.420;20.896;2022-07-22T04:55:52;9.00;;;5.35;;
21188;SDS011;39071;52.420;20.896;2022-07-22T04:58:18;8.45;;;4.63;;
21188;SDS011;39071;52.420;20.896;2022-07-22T05:00:43;9.68;;;5.13;;
21188;SDS011;39071;52.420;20.896;2022-07-22T05:03:09;9.90;;;5.20;;
21188;SDS011;39071;52.420;20.896;2022-07-22T05:05:35;12.98;;;4.82;;
21188;SDS011;39071;52.420;20.896;2022-07-22T05:08:00;9.40;;;4.72;;
21188;SDS011;39071;52.420;20.896;2022-07-22T05:10:26;11.00;;;5.20;;
21188;SDS011;39071;52.420;20.896;2022-07-22T05:12:52;8.30;;;5.13;;
21188;SDS011;39071;52.420;20.896;2022-07-22T05:15:18;11.75;;;4.88;;
21188;SDS011;39071;52.420;20.896;2022-07-22T05:17:44;14.38;;;4.85;;
21188;SDS011;39071;52.420;20.896;2022-07-22T05:20:10;8.68;;;4.00;;
21188;SDS011;39071;52.420;20.896;2022-07-22T05:22:36;9.13;;;4.80;;
21188;SDS011;39071;52.420;20.896;2022-07-22T05:25:01;8.73;;;4.40;;
21188;SDS011;39071;52.420;20.896;2022-07-22T05:27:27;13.05;;;4.95;;
21188;SDS011;39071;52.420;20.896;2022-07-22T05:29:53;11.13;;;4.55;;
21188;SDS011;39071;52.420;20.896;2022-07-22T05:32:19;9.38;;;4.25;;
21188;SDS011;39071;52.420;20.896;2022-07-22T05:34:44;12.80;;;5.03;;
21188;SDS011;39071;52.420;20.896;2022-07-22T05:37:10;11.85;;;5.38;;
21188;SDS011;39071;52.420;20.896;2022-07-22T05:39:36;8.38;;;4.45;;
21188;SDS011;39071;52.420;20.896;2022-07-22T05:42:02;10.90;;;4.22;;
21188;SDS011;39071;52.420;20.896;2022-07-22T05:44:28;8.32;;;4.63;;
21188;SDS011;39071;52.420;20.896;2022-07-22T05:46:53;9.40;;;5.03;;
21188;SDS011;39071;52.420;20.896;2022-07-22T05:49:19;12.73;;;4.45;;
21188;SDS011;39071;52.420;20.896;2022-07-22T05:51:46;10.35;;;4.47;;
21188;SDS011;39071;52.420;20.896;2022-07-22T05:54:12;9.40;;;4.38;;
21188;SDS011;39071;52.420;20.896;2022-07-22T05:56:38;13.00;;;4.80;;
21188;SDS011;39071;52.420;20.896;2022-07-22T05:59:04;8.30;;;4.20;;
21188;SDS011;39071;52.420;20.896;2022-07-22T06:01:29;8.05;;;4.38;;
21188;SDS011;39071;52.420;20.896;2022-07-22T06:03:55;9.52;;;4.13;;
21188;SDS011;39071;52.420;20.896;2022-07-22T06:06:21;9.65;;;4.70;;
21188;SDS011;39071;52.420;20.896;2022-07-22T06:08:46;5.35;;;4.35;;
21188;SDS011;39071;52.420;20.896;2022-07-22T06:11:12;15.48;;;4.65;;
21188;SDS011;39071;52.420;20.896;2022-07-22T06:13:38;12.32;;;4.50;;
21188;SDS011;39071;52.420;20.896;2022-07-22T06:16:04;8.57;;;4.47;;
21188;SDS011;39071;52.420;20.896;2022-07-22T06:18:30;15.07;;;4.75;;
21188;SDS011;39071;52.420;20.896;2022-07-22T06:20:56;9.82;;;4.20;;
21188;SDS011;39071;52.420;20.896;2022-07-22T06:23:24;17.73;;;4.75;;
21188;SDS011;39071;52.420;20.896;2022-07-22T06:25:50;11.95;;;4.60;;
21188;SDS011;39071;52.420;20.896;2022-07-22T06:28:15;18.83;;;5.05;;
21188;SDS011;39071;52.420;20.896;2022-07-22T06:30:41;13.88;;;4.53;;
21188;SDS011;39071;52.420;20.896;2022-07-22T06:33:07;11.75;;;4.57;;
21188;SDS011;39071;52.420;20.896;2022-07-22T06:35:33;10.82;;;4.25;;
21188;SDS011;39071;52.420;20.896;2022-07-22T06:37:59;13.73;;;4.53;;
21188;SDS011;39071;52.420;20.896;2022-07-22T06:40:25;11.90;;;4.07;;
21188;SDS011;39071;52.420;20.896;2022-07-22T06:42:51;9.07;;;3.70;;
21188;SDS011;39071;52.420;20.896;2022-07-22T06:45:16;10.35;;;3.40;;
21188;SDS011;39071;52.420;20.896;2022-07-22T06:47:42;5.45;;;3.45;;
21188;SDS011;39071;52.420;20.896;2022-07-22T06:50:08;10.00;;;3.92;;
21188;SDS011;39071;52.420;20.896;2022-07-22T06:52:37;8.52;;;3.55;;
21188;SDS011;39071;52.420;20.896;2022-07-22T06:55:04;9.32;;;4.10;;
21188;SDS011;39071;52.420;20.896;2022-07-22T06:57:31;7.45;;;3.92;;
21188;SDS011;39071;52.420;20.896;2022-07-22T06:59:56;47.65;;;7.93;;
21188;SDS011;39071;52.420;20.896;2022-07-22T07:02:22;16.95;;;4.03;;
21188;SDS011;39071;52.420;20.896;2022-07-22T07:04:48;21.27;;;4.68;;
21188;SDS011;39071;52.420;20.896;2022-07-22T07:07:13;7.30;;;3.33;;
21188;SDS011;39071;52.420;20.896;2022-07-22T07:09:39;11.43;;;3.58;;
21188;SDS011;39071;52.420;20.896;2022-07-22T07:12:05;26.95;;;4.85;;
21188;SDS011;39071;52.420;20.896;2022-07-22T07:14:31;12.50;;;4.88;;
21188;SDS011;39071;52.420;20.896;2022-07-22T07:16:57;10.55;;;3.60;;
21188;SDS011;39071;52.420;20.896;2022-07-22T07:19:22;12.38;;;4.50;;
21188;SDS011;39071;52.420;20.896;2022-07-22T07:21:48;10.45;;;5.20;;
21188;SDS011;39071;52.420;20.896;2022-07-22T07:24:14;10.07;;;3.63;;
21188;SDS011;39071;52.420;20.896;2022-07-22T07:26:39;9.73;;;3.80;;
21188;SDS011;39071;52.420;20.896;2022-07-22T07:29:05;9.57;;;3.97;;
21188;SDS011;39071;52.420;20.896;2022-07-22T07:31:31;12.57;;;4.15;;
21188;SDS011;39071;52.420;20.896;2022-07-22T07:33:56;10.45;;;3.97;;
21188;SDS011;39071;52.420;20.896;2022-07-22T07:36:23;10.55;;;4.15;;
21188;SDS011;39071;52.420;20.896;2022-07-22T07:38:48;6.82;;;4.10;;
21188;SDS011;39071;52.420;20.896;2022-07-22T07:41:15;30.33;;;4.50;;
21188;SDS011;39071;52.420;20.896;2022-07-22T07:43:41;11.63;;;4.78;;
21188;SDS011;39071;52.420;20.896;2022-07-22T07:46:07;16.15;;;5.30;;
21188;SDS011;39071;52.420;20.896;2022-07-22T07:48:32;13.70;;;4.85;;
21188;SDS011;39071;52.420;20.896;2022-07-22T07:50:58;7.95;;;4.82;;
21188;SDS011;39071;52.420;20.896;2022-07-22T07:53:24;10.68;;;4.95;;
21188;SDS011;39071;52.420;20.896;2022-07-22T07:55:49;13.63;;;5.78;;
21188;SDS011;39071;52.420;20.896;2022-07-22T07:58:16;14.23;;;6.13;;
21188;SDS011;39071;52.420;20.896;2022-07-22T08:00:41;10.07;;;5.38;;
21188;SDS011;39071;52.420;20.896;2022-07-22T08:03:07;8.73;;;5.53;;
21188;SDS011;39071;52.420;20.896;2022-07-22T08:05:33;9.13;;;5.45;;
21188;SDS011;39071;52.420;20.896;2022-07-22T08:08:00;11.73;;;5.85;;
21188;SDS011;39071;52.420;20.896;2022-07-22T08:10:26;11.52;;;5.50;;
21188;SDS011;39071;52.420;20.896;2022-07-22T08:12:52;11.88;;;5.55;;
21188;SDS011;39071;52.420;20.896;2022-07-22T08:15:20;7.68;;;4.88;;
21188;SDS011;39071;52.420;20.896;2022-07-22T08:17:46;11.23;;;5.63;;
21188;SDS011;39071;52.420;20.896;2022-07-22T08:20:12;12.63;;;5.57;;
21188;SDS011;39071;52.420;20.896;2022-07-22T08:22:38;14.82;;;5.97;;
21188;SDS011;39071;52.420;20.896;2022-07-22T08:25:04;6.78;;;5.40;;
21188;SDS011;39071;52.420;20.896;2022-07-22T08:27:30;9.15;;;5.60;;
21188;SDS011;39071;52.420;20.896;2022-07-22T08:29:56;10.10;;;5.90;;
21188;SDS011;39071;52.420;20.896;2022-07-22T08:32:22;13.35;;;6.03;;
21188;SDS011;39071;52.420;20.896;2022-07-22T08:34:48;14.27;;;6.05;;
21188;SDS011;39071;52.420;20.896;2022-07-22T08:37:14;16.48;;;8.02;;
21188;SDS011;39071;52.420;20.896;2022-07-22T08:39:39;16.17;;;6.28;;
21188;SDS011;39071;52.420;20.896;2022-07-22T08:42:05;7.68;;;5.90;;
21188;SDS011;39071;52.420;20.896;2022-07-22T08:44:31;12.57;;;6.85;;
21188;SDS011;39071;52.420;20.896;2022-07-22T08:46:58;8.02;;;6.03;;
21188;SDS011;39071;52.420;20.896;2022-07-22T08:49:25;7.65;;;6.03;;
21188;SDS011;39071;52.420;20.896;2022-07-22T08:51:51;13.00;;;6.55;;
21188;SDS011;39071;52.420;20.896;2022-07-22T08:54:17;12.98;;;6.82;;
21188;SDS011;39071;52.420;20.896;2022-07-22T08:56:47;12.27;;;7.05;;
21188;SDS011;39071;52.420;20.896;2022-07-22T08:59:14;14.45;;;7.40;;
21188;SDS011;39071;52.420;20.896;2022-07-22T09:02:00;13.88;;;7.95;;
21188;SDS011;39071;52.420;20.896;2022-07-22T09:04:25;16.38;;;7.97;;
21188;SDS011;39071;52.420;20.896;2022-07-22T09:06:51;14.02;;;8.02;;
21188;SDS011;39071;52.420;20.896;2022-07-22T09:09:17;11.57;;;7.93;;
21188;SDS011;39071;52.420;20.896;2022-07-22T09:12:07;14.45;;;8.10;;
21188;SDS011;39071;52.420;20.896;2022-07-22T09:14:43;15.95;;;8.07;;
21188;SDS011;39071;52.420;20.896;2022-07-22T09:17:53;14.88;;;8.77;;
21188;SDS011;39071;52.420;20.896;2022-07-22T09:20:02;14.65;;;8.50;;
21188;SDS011;39071;52.420;20.896;2022-07-22T09:22:37;13.73;;;8.57;;
21188;SDS011;39071;52.420;20.896;2022-07-22T09:25:24;10.93;;;9.00;;
21188;SDS011;39071;52.420;20.896;2022-07-22T09:30:36;17.95;;;9.00;;
21188;SDS011;39071;52.420;20.896;2022-07-22T09:33:04;19.20;;;9.82;;
21188;SDS011;39071;52.420;20.896;2022-07-22T09:35:30;14.48;;;9.68;;
21188;SDS011;39071;52.420;20.896;2022-07-22T09:37:58;12.23;;;9.43;;
21188;SDS011;39071;52.420;20.896;2022-07-22T09:40:26;14.18;;;9.68;;
21188;SDS011;39071;52.420;20.896;2022-07-22T09:42:58;15.57;;;9.77;;
21188;SDS011;39071;52.420;20.896;2022-07-22T09:45:25;16.13;;;9.85;;
21188;SDS011;39071;52.420;20.896;2022-07-22T09:47:56;17.15;;;9.38;;
21188;SDS011;39071;52.420;20.896;2022-07-22T09:50:24;17.58;;;9.95;;
21188;SDS011;39071;52.420;20.896;2022-07-22T09:52:55;14.45;;;9.15;;
21188;SDS011;39071;52.420;20.896;2022-07-22T09:55:23;16.98;;;9.10;;
21188;SDS011;39071;52.420;20.896;2022-07-22T09:57:49;15.55;;;8.77;;
21188;SDS011;39071;52.420;20.896;2022-07-22T10:00:17;12.88;;;9.40;;
21188;SDS011;39071;52.420;20.896;2022-07-22T10:02:46;16.95;;;9.98;;
21188;SDS011;39071;52.420;20.896;2022-07-22T10:05:13;16.85;;;9.82;;
21188;SDS011;39071;52.420;20.896;2022-07-22T10:07:41;20.50;;;9.43;;
21188;SDS011;39071;52.420;20.896;2022-07-22T10:10:08;15.20;;;8.82;;
21188;SDS011;39071;52.420;20.896;2022-07-22T10:12:36;16.83;;;8.55;;
21188;SDS011;39071;52.420;20.896;2022-07-22T10:15:03;15.38;;;9.63;;
21188;SDS011;39071;52.420;20.896;2022-07-22T10:17:30;16.95;;;8.25;;
21188;SDS011;39071;52.420;20.896;2022-07-22T10:19:56;21.55;;;9.65;;
21188;SDS011;39071;52.420;20.896;2022-07-22T10:22:45;16.15;;;9.02;;
21188;SDS011;39071;52.420;20.896;2022-07-22T10:25:14;13.15;;;8.65;;
21188;SDS011;39071;52.420;20.896;2022-07-22T10:30:31;13.65;;;9.40;;
21188;SDS011;39071;52.420;20.896;2022-07-22T10:33:02;13.05;;;8.40;;
21188;SDS011;39071;52.420;20.896;2022-07-22T10:35:28;15.07;;;8.07;;
21188;SDS011;39071;52.420;20.896;2022-07-22T10:37:55;17.02;;;8.45;;
21188;SDS011;39071;52.420;20.896;2022-07-22T10:40:28;13.75;;;7.82;;
21188;SDS011;39071;52.420;20.896;2022-07-22T10:48:07;10.85;;;8.10;;
21188;SDS011;39071;52.420;20.896;2022-07-22T10:53:06;14.48;;;8.13;;
21188;SDS011;39071;52.420;20.896;2022-07-22T10:55:33;10.07;;;7.38;;
21188;SDS011;39071;52.420;20.896;2022-07-22T10:58:00;11.75;;;7.05;;
21188;SDS011;39071;52.420;20.896;2022-07-22T11:00:46;13.98;;;7.18;;
21188;SDS011;39071;52.420;20.896;2022-07-22T11:03:12;12.43;;;7.43;;
21188;SDS011;39071;52.420;20.896;2022-07-22T11:05:37;14.15;;;7.80;;
21188;SDS011;39071;52.420;20.896;2022-07-22T11:08:08;16.20;;;7.88;;
21188;SDS011;39071;52.420;20.896;2022-07-22T11:10:34;11.70;;;7.55;;
21188;SDS011;39071;52.420;20.896;2022-07-22T11:13:00;13.57;;;8.05;;
21188;SDS011;39071;52.420;20.896;2022-07-22T11:15:25;13.52;;;7.20;;
21188;SDS011;39071;52.420;20.896;2022-07-22T11:17:55;13.45;;;8.68;;
21188;SDS011;39071;52.420;20.896;2022-07-22T11:20:22;12.30;;;7.82;;
21188;SDS011;39071;52.420;20.896;2022-07-22T11:22:48;13.00;;;8.73;;
21188;SDS011;39071;52.420;20.896;2022-07-22T11:25:14;14.20;;;7.80;;
21188;SDS011;39071;52.420;20.896;2022-07-22T11:27:47;11.60;;;6.82;;
21188;SDS011;39071;52.420;20.896;2022-07-22T11:30:22;9.68;;;7.05;;
21188;SDS011;39071;52.420;20.896;2022-07-22T11:32:49;13.15;;;7.45;;
21188;SDS011;39071;52.420;20.896;2022-07-22T11:35:15;12.18;;;7.28;;
21188;SDS011;39071;52.420;20.896;2022-07-22T11:37:41;12.57;;;7.93;;
21188;SDS011;39071;52.420;20.896;2022-07-22T11:40:08;10.90;;;7.30;;
21188;SDS011;39071;52.420;20.896;2022-07-22T11:42:34;17.85;;;7.53;;
21188;SDS011;39071;52.420;20.896;2022-07-22T11:45:00;18.10;;;6.78;;
21188;SDS011;39071;52.420;20.896;2022-07-22T11:47:26;12.00;;;7.80;;
21188;SDS011;39071;52.420;20.896;2022-07-22T11:49:52;19.98;;;7.22;;
21188;SDS011;39071;52.420;20.896;2022-07-22T11:52:18;14.70;;;7.05;;
21188;SDS011;39071;52.420;20.896;2022-07-22T11:54:44;15.25;;;6.93;;
21188;SDS011;39071;52.420;20.896;2022-07-22T11:57:11;8.45;;;7.32;;
21188;SDS011;39071;52.420;20.896;2022-07-22T11:59:38;17.92;;;7.05;;
21188;SDS011;39071;52.420;20.896;2022-07-22T12:02:04;11.65;;;8.52;;
21188;SDS011;39071;52.420;20.896;2022-07-22T12:04:31;11.70;;;7.43;;
21188;SDS011;39071;52.420;20.896;2022-07-22T12:06:58;12.05;;;7.30;;
21188;SDS011;39071;52.420;20.896;2022-07-22T12:09:28;11.88;;;7.13;;
21188;SDS011;39071;52.420;20.896;2022-07-22T12:11:57;10.73;;;7.00;;
21188;SDS011;39071;52.420;20.896;2022-07-22T12:14:24;14.10;;;7.30;;
21188;SDS011;39071;52.420;20.896;2022-07-22T12:17:14;8.90;;;6.93;;
21188;SDS011;39071;52.420;20.896;2022-07-22T12:19:41;16.25;;;6.93;;
21188;SDS011;39071;52.420;20.896;2022-07-22T12:22:11;15.00;;;7.53;;
21188;SDS011;39071;52.420;20.896;2022-07-22T12:24:44;25.25;;;8.48;;
21188;SDS011;39071;52.420;20.896;2022-07-22T12:27:11;10.05;;;7.18;;
21188;SDS011;39071;52.420;20.896;2022-07-22T12:32:08;17.48;;;7.10;;
21188;SDS011;39071;52.420;20.896;2022-07-22T12:37:25;15.23;;;6.70;;
21188;SDS011;39071;52.420;20.896;2022-07-22T12:42:25;10.73;;;7.20;;
21188;SDS011;39071;52.420;20.896;2022-07-22T12:47:43;12.30;;;7.82;;
21188;SDS011;39071;52.420;20.896;2022-07-22T12:50:19;9.48;;;7.40;;
21188;SDS011;39071;52.420;20.896;2022-07-22T12:52:45;9.63;;;7.75;;
21188;SDS011;39071;52.420;20.896;2022-07-22T12:55:12;13.45;;;7.88;;
21188;SDS011;39071;52.420;20.896;2022-07-22T12:57:37;11.77;;;7.28;;
21188;SDS011;39071;52.420;20.896;2022-07-22T13:00:03;12.32;;;7.60;;
21188;SDS011;39071;52.420;20.896;2022-07-22T13:02:29;8.82;;;6.50;;
21188;SDS011;39071;52.420;20.896;2022-07-22T13:04:55;10.40;;;7.20;;
21188;SDS011;39071;52.420;20.896;2022-07-22T13:07:21;14.00;;;7.15;;
21188;SDS011;39071;52.420;20.896;2022-07-22T13:09:46;18.92;;;7.47;;
21188;SDS011;39071;52.420;20.896;2022-07-22T13:12:12;10.98;;;6.90;;
21188;SDS011;39071;52.420;20.896;2022-07-22T13:14:38;9.57;;;6.97;;
21188;SDS011;39071;52.420;20.896;2022-07-22T13:17:03;9.43;;;7.85;;
21188;SDS011;39071;52.420;20.896;2022-07-22T13:19:29;8.95;;;6.97;;
21188;SDS011;39071;52.420;20.896;2022-07-22T13:21:55;8.73;;;7.82;;
21188;SDS011;39071;52.420;20.896;2022-07-22T13:24:20;10.02;;;7.78;;
21188;SDS011;39071;52.420;20.896;2022-07-22T13:26:46;18.65;;;7.90;;
21188;SDS011;39071;52.420;20.896;2022-07-22T13:29:12;14.80;;;7.72;;
21188;SDS011;39071;52.420;20.896;2022-07-22T13:31:37;20.38;;;7.75;;
21188;SDS011;39071;52.420;20.896;2022-07-22T13:34:03;12.32;;;6.93;;
21188;SDS011;39071;52.420;20.896;2022-07-22T13:36:29;15.70;;;7.35;;
21188;SDS011;39071;52.420;20.896;2022-07-22T13:38:57;12.27;;;6.93;;
21188;SDS011;39071;52.420;20.896;2022-07-22T13:41:23;9.63;;;7.05;;
21188;SDS011;39071;52.420;20.896;2022-07-22T13:43:49;12.50;;;6.90;;
21188;SDS011;39071;52.420;20.896;2022-07-22T13:46:16;9.07;;;7.28;;
21188;SDS011;39071;52.420;20.896;2022-07-22T13:48:42;10.25;;;6.75;;
21188;SDS011;39071;52.420;20.896;2022-07-22T13:51:08;9.50;;;7.13;;
21188;SDS011;39071;52.420;20.896;2022-07-22T13:53:34;9.20;;;6.70;;
21188;SDS011;39071;52.420;20.896;2022-07-22T13:56:00;9.02;;;6.25;;
21188;SDS011;39071;52.420;20.896;2022-07-22T13:58:27;7.40;;;6.40;;
21188;SDS011;39071;52.420;20.896;2022-07-22T14:00:52;16.60;;;6.90;;
21188;SDS011;39071;52.420;20.896;2022-07-22T14:03:19;10.03;;;7.50;;
21188;SDS011;39071;52.420;20.896;2022-07-22T14:05:44;9.40;;;7.05;;
21188;SDS011;39071;52.420;20.896;2022-07-22T14:08:10;11.60;;;7.13;;
21188;SDS011;39071;52.420;20.896;2022-07-22T14:10:36;12.63;;;7.60;;
21188;SDS011;39071;52.420;20.896;2022-07-22T14:13:02;8.90;;;6.18;;
21188;SDS011;39071;52.420;20.896;2022-07-22T14:15:28;10.82;;;6.70;;
21188;SDS011;39071;52.420;20.896;2022-07-22T14:17:53;8.18;;;7.03;;
21188;SDS011;39071;52.420;20.896;2022-07-22T14:20:19;12.68;;;7.38;;
21188;SDS011;39071;52.420;20.896;2022-07-22T14:22:45;12.05;;;6.72;;
21188;SDS011;39071;52.420;20.896;2022-07-22T14:25:10;14.00;;;7.25;;
21188;SDS011;39071;52.420;20.896;2022-07-22T14:27:36;17.30;;;7.35;;
21188;SDS011;39071;52.420;20.896;2022-07-22T14:30:02;12.48;;;8.45;;
21188;SDS011;39071;52.420;20.896;2022-07-22T14:32:28;13.23;;;7.20;;
21188;SDS011;39071;52.420;20.896;2022-07-22T14:34:54;8.75;;;6.82;;
21188;SDS011;39071;52.420;20.896;2022-07-22T14:37:20;7.38;;;6.45;;
21188;SDS011;39071;52.420;20.896;2022-07-22T14:39:47;9.25;;;6.22;;
21188;SDS011;39071;52.420;20.896;2022-07-22T14:42:12;7.72;;;7.00;;
21188;SDS011;39071;52.420;20.896;2022-07-22T14:44:38;15.05;;;7.13;;